sensor_id;sensor_type;location;lat;lon;timestamp;P1;durP1;ratioP1;P2;durP2;ratioP2
15833;SDS011;8017;50.812;4.934;2023-05-07T00:02:29;7.50;;;6.13;;
15833;SDS011;8017;50.812;4.934;2023-05-07T00:05:32;9.57;;;6.80;;
15833;SDS011;8017;50.812;4.934;2023-05-07T00:08:35;7.40;;;6.40;;
15833;SDS011;8017;50.812;4.934;2023-05-07T00:11:37;11.53;;;7.03;;
15833;SDS011;8017;50.812;4.934;2023-05-07T00:14:39;8.53;;;6.50;;
15833;SDS011;8017;50.812;4.934;2023-05-07T00:17:41;8.23;;;6.27;;
15833;SDS011;8017;50.812;4.934;2023-05-07T00:20:43;8.80;;;6.47;;
15833;SDS011;8017;50.812;4.934;2023-05-07T00:23:46;9.43;;;6.43;;
15833;SDS011;8017;50.812;4.934;2023-05-07T00:26:48;7.40;;;6.37;;
15833;SDS011;8017;50.812;4.934;2023-05-07T00:29:50;8.80;;;6.47;;
15833;SDS011;8017;50.812;4.934;2023-05-07T00:32:52;11.30;;;6.80;;
15833;SDS011;8017;50.812;4.934;2023-05-07T00:35:54;9.67;;;7.17;;
15833;SDS011;8017;50.812;4.934;2023-05-07T00:38:59;7.80;;;7.00;;
15833;SDS011;8017;50.812;4.934;2023-05-07T00:42:02;9.27;;;6.90;;
15833;SDS011;8017;50.812;4.934;2023-05-07T00:45:05;10.13;;;6.90;;
15833;SDS011;8017;50.812;4.934;2023-05-07T00:48:09;8.47;;;6.37;;
15833;SDS011;8017;50.812;4.934;2023-05-07T00:51:11;8.40;;;6.90;;
15833;SDS011;8017;50.812;4.934;2023-05-07T00:54:14;10.53;;;6.97;;
15833;SDS011;8017;50.812;4.934;2023-05-07T00:57:16;8.30;;;6.93;;
15833;SDS011;8017;50.812;4.934;2023-05-07T01:00:19;9.03;;;7.47;;
15833;SDS011;8017;50.812;4.934;2023-05-07T01:03:21;9.03;;;7.00;;
15833;SDS011;8017;50.812;4.934;2023-05-07T01:06:23;8.63;;;7.30;;
15833;SDS011;8017;50.812;4.934;2023-05-07T01:09:27;8.30;;;6.80;;
15833;SDS011;8017;50.812;4.934;2023-05-07T01:12:30;13.77;;;8.10;;
15833;SDS011;8017;50.812;4.934;2023-05-07T01:15:32;11.73;;;8.83;;
15833;SDS011;8017;50.812;4.934;2023-05-07T01:18:34;12.47;;;8.27;;
15833;SDS011;8017;50.812;4.934;2023-05-07T01:21:36;10.93;;;9.73;;
15833;SDS011;8017;50.812;4.934;2023-05-07T01:24:41;10.20;;;8.87;;
15833;SDS011;8017;50.812;4.934;2023-05-07T01:27:43;10.03;;;8.80;;
15833;SDS011;8017;50.812;4.934;2023-05-07T01:30:47;11.83;;;10.27;;
15833;SDS011;8017;50.812;4.934;2023-05-07T01:33:52;12.13;;;10.50;;
15833;SDS011;8017;50.812;4.934;2023-05-07T01:36:55;11.87;;;10.73;;
15833;SDS011;8017;50.812;4.934;2023-05-07T01:39:59;13.00;;;11.63;;
15833;SDS011;8017;50.812;4.934;2023-05-07T01:43:03;13.37;;;11.97;;
15833;SDS011;8017;50.812;4.934;2023-05-07T01:46:06;13.30;;;12.00;;
15833;SDS011;8017;50.812;4.934;2023-05-07T01:49:10;15.47;;;13.60;;
15833;SDS011;8017;50.812;4.934;2023-05-07T01:52:11;15.53;;;13.87;;
15833;SDS011;8017;50.812;4.934;2023-05-07T01:55:16;16.20;;;14.17;;
15833;SDS011;8017;50.812;4.934;2023-05-07T01:58:18;17.20;;;13.40;;
15833;SDS011;8017;50.812;4.934;2023-05-07T02:01:20;15.63;;;14.23;;
15833;SDS011;8017;50.812;4.934;2023-05-07T02:04:22;15.80;;;14.10;;
15833;SDS011;8017;50.812;4.934;2023-05-07T02:07:24;17.13;;;14.93;;
15833;SDS011;8017;50.812;4.934;2023-05-07T02:10:28;16.57;;;15.07;;
15833;SDS011;8017;50.812;4.934;2023-05-07T02:13:31;15.10;;;13.70;;
15833;SDS011;8017;50.812;4.934;2023-05-07T02:16:33;15.07;;;13.67;;
15833;SDS011;8017;50.812;4.934;2023-05-07T02:19:35;15.00;;;13.50;;
15833;SDS011;8017;50.812;4.934;2023-05-07T02:22:37;17.27;;;14.57;;
15833;SDS011;8017;50.812;4.934;2023-05-07T02:25:40;15.67;;;13.97;;
15833;SDS011;8017;50.812;4.934;2023-05-07T02:28:42;16.27;;;14.67;;
15833;SDS011;8017;50.812;4.934;2023-05-07T02:31:44;19.50;;;15.37;;
15833;SDS011;8017;50.812;4.934;2023-05-07T02:34:49;16.47;;;14.57;;
15833;SDS011;8017;50.812;4.934;2023-05-07T02:37:51;15.70;;;14.10;;
15833;SDS011;8017;50.812;4.934;2023-05-07T02:40:54;18.17;;;16.03;;
15833;SDS011;8017;50.812;4.934;2023-05-07T02:43:56;17.67;;;15.87;;
15833;SDS011;8017;50.812;4.934;2023-05-07T02:46:58;18.37;;;16.63;;
15833;SDS011;8017;50.812;4.934;2023-05-07T02:50:00;20.27;;;16.47;;
15833;SDS011;8017;50.812;4.934;2023-05-07T02:53:02;19.43;;;17.53;;
15833;SDS011;8017;50.812;4.934;2023-05-07T02:56:06;18.47;;;16.47;;
15833;SDS011;8017;50.812;4.934;2023-05-07T02:59:08;19.07;;;17.17;;
15833;SDS011;8017;50.812;4.934;2023-05-07T03:02:10;19.43;;;17.40;;
15833;SDS011;8017;50.812;4.934;2023-05-07T03:05:12;19.53;;;17.70;;
15833;SDS011;8017;50.812;4.934;2023-05-07T03:08:14;20.07;;;18.10;;
15833;SDS011;8017;50.812;4.934;2023-05-07T03:11:17;18.63;;;16.97;;
15833;SDS011;8017;50.812;4.934;2023-05-07T03:14:19;20.50;;;18.43;;
15833;SDS011;8017;50.812;4.934;2023-05-07T03:17:21;20.90;;;18.50;;
15833;SDS011;8017;50.812;4.934;2023-05-07T03:20:23;19.23;;;17.43;;
15833;SDS011;8017;50.812;4.934;2023-05-07T03:23:25;20.47;;;18.17;;
15833;SDS011;8017;50.812;4.934;2023-05-07T03:26:29;18.90;;;17.00;;
15833;SDS011;8017;50.812;4.934;2023-05-07T03:29:30;19.93;;;17.97;;
15833;SDS011;8017;50.812;4.934;2023-05-07T03:32:32;18.90;;;16.90;;
15833;SDS011;8017;50.812;4.934;2023-05-07T03:35:34;18.87;;;16.97;;
15833;SDS011;8017;50.812;4.934;2023-05-07T03:38:36;18.10;;;16.33;;
15833;SDS011;8017;50.812;4.934;2023-05-07T03:41:39;21.80;;;17.13;;
15833;SDS011;8017;50.812;4.934;2023-05-07T03:44:41;17.13;;;15.47;;
15833;SDS011;8017;50.812;4.934;2023-05-07T03:47:43;17.93;;;16.03;;
15833;SDS011;8017;50.812;4.934;2023-05-07T03:50:45;17.93;;;15.83;;
15833;SDS011;8017;50.812;4.934;2023-05-07T03:53:47;17.37;;;15.60;;
15833;SDS011;8017;50.812;4.934;2023-05-07T03:56:51;17.67;;;15.90;;
15833;SDS011;8017;50.812;4.934;2023-05-07T03:59:53;16.73;;;15.10;;
15833;SDS011;8017;50.812;4.934;2023-05-07T04:02:59;17.67;;;15.80;;
15833;SDS011;8017;50.812;4.934;2023-05-07T04:06:06;17.53;;;15.60;;
15833;SDS011;8017;50.812;4.934;2023-05-07T04:09:14;17.53;;;16.00;;
15833;SDS011;8017;50.812;4.934;2023-05-07T04:12:20;18.73;;;16.90;;
15833;SDS011;8017;50.812;4.934;2023-05-07T04:15:32;18.47;;;16.77;;
15833;SDS011;8017;50.812;4.934;2023-05-07T04:18:46;18.17;;;16.37;;
15833;SDS011;8017;50.812;4.934;2023-05-07T04:21:50;19.80;;;15.97;;
15833;SDS011;8017;50.812;4.934;2023-05-07T04:24:57;17.40;;;15.63;;
15833;SDS011;8017;50.812;4.934;2023-05-07T04:28:10;18.43;;;16.60;;
15833;SDS011;8017;50.812;4.934;2023-05-07T04:31:16;17.50;;;15.90;;
15833;SDS011;8017;50.812;4.934;2023-05-07T04:34:22;15.67;;;13.67;;
15833;SDS011;8017;50.812;4.934;2023-05-07T04:37:29;15.03;;;12.83;;
15833;SDS011;8017;50.812;4.934;2023-05-07T04:40:36;15.87;;;12.47;;
15833;SDS011;8017;50.812;4.934;2023-05-07T04:43:40;15.70;;;12.27;;
15833;SDS011;8017;50.812;4.934;2023-05-07T04:46:43;18.30;;;13.23;;
15833;SDS011;8017;50.812;4.934;2023-05-07T04:49:44;14.27;;;12.50;;
15833;SDS011;8017;50.812;4.934;2023-05-07T04:52:46;13.90;;;12.50;;
15833;SDS011;8017;50.812;4.934;2023-05-07T04:55:48;15.70;;;12.63;;
15833;SDS011;8017;50.812;4.934;2023-05-07T04:58:51;16.07;;;12.93;;
15833;SDS011;8017;50.812;4.934;2023-05-07T05:01:53;15.97;;;14.20;;
15833;SDS011;8017;50.812;4.934;2023-05-07T05:04:55;14.93;;;13.37;;
15833;SDS011;8017;50.812;4.934;2023-05-07T05:07:57;17.97;;;14.20;;
15833;SDS011;8017;50.812;4.934;2023-05-07T05:11:00;16.47;;;13.43;;
15833;SDS011;8017;50.812;4.934;2023-05-07T05:14:03;14.37;;;12.63;;
15833;SDS011;8017;50.812;4.934;2023-05-07T05:17:05;14.13;;;11.80;;
15833;SDS011;8017;50.812;4.934;2023-05-07T05:20:07;12.60;;;10.93;;
15833;SDS011;8017;50.812;4.934;2023-05-07T05:23:10;14.50;;;11.77;;
15833;SDS011;8017;50.812;4.934;2023-05-07T05:26:12;13.23;;;11.93;;
15833;SDS011;8017;50.812;4.934;2023-05-07T05:29:16;14.43;;;12.30;;
15833;SDS011;8017;50.812;4.934;2023-05-07T05:32:17;13.10;;;11.70;;
15833;SDS011;8017;50.812;4.934;2023-05-07T05:35:19;13.00;;;11.23;;
15833;SDS011;8017;50.812;4.934;2023-05-07T05:38:21;15.63;;;12.07;;
15833;SDS011;8017;50.812;4.934;2023-05-07T05:41:23;13.53;;;10.67;;
15833;SDS011;8017;50.812;4.934;2023-05-07T05:44:26;14.80;;;11.47;;
15833;SDS011;8017;50.812;4.934;2023-05-07T05:47:29;11.60;;;10.40;;
15833;SDS011;8017;50.812;4.934;2023-05-07T05:50:31;15.43;;;11.43;;
15833;SDS011;8017;50.812;4.934;2023-05-07T05:53:33;12.70;;;10.80;;
15833;SDS011;8017;50.812;4.934;2023-05-07T05:56:36;14.03;;;11.40;;
15833;SDS011;8017;50.812;4.934;2023-05-07T05:59:39;12.70;;;10.70;;
15833;SDS011;8017;50.812;4.934;2023-05-07T06:02:41;12.87;;;11.30;;
15833;SDS011;8017;50.812;4.934;2023-05-07T06:05:43;15.53;;;10.43;;
15833;SDS011;8017;50.812;4.934;2023-05-07T06:08:45;11.63;;;9.80;;
15833;SDS011;8017;50.812;4.934;2023-05-07T06:11:47;13.37;;;8.47;;
15833;SDS011;8017;50.812;4.934;2023-05-07T06:14:51;10.57;;;8.47;;
15833;SDS011;8017;50.812;4.934;2023-05-07T06:17:53;9.60;;;8.47;;
15833;SDS011;8017;50.812;4.934;2023-05-07T06:20:56;9.83;;;7.40;;
15833;SDS011;8017;50.812;4.934;2023-05-07T06:23:57;11.90;;;7.60;;
15833;SDS011;8017;50.812;4.934;2023-05-07T06:26:59;12.33;;;8.20;;
15833;SDS011;8017;50.812;4.934;2023-05-07T06:30:03;9.20;;;7.07;;
15833;SDS011;8017;50.812;4.934;2023-05-07T06:33:06;11.47;;;7.23;;
15833;SDS011;8017;50.812;4.934;2023-05-07T06:36:08;8.13;;;6.50;;
15833;SDS011;8017;50.812;4.934;2023-05-07T06:39:10;7.43;;;5.87;;
15833;SDS011;8017;50.812;4.934;2023-05-07T06:42:12;10.90;;;6.60;;
15833;SDS011;8017;50.812;4.934;2023-05-07T06:45:15;11.10;;;6.40;;
15833;SDS011;8017;50.812;4.934;2023-05-07T06:48:17;10.07;;;6.30;;
15833;SDS011;8017;50.812;4.934;2023-05-07T06:51:20;9.83;;;5.97;;
15833;SDS011;8017;50.812;4.934;2023-05-07T06:54:22;7.73;;;6.13;;
15833;SDS011;8017;50.812;4.934;2023-05-07T06:57:24;9.60;;;5.43;;
15833;SDS011;8017;50.812;4.934;2023-05-07T07:00:27;10.27;;;5.83;;
15833;SDS011;8017;50.812;4.934;2023-05-07T07:03:29;11.13;;;6.27;;
15833;SDS011;8017;50.812;4.934;2023-05-07T07:06:31;9.90;;;6.20;;
15833;SDS011;8017;50.812;4.934;2023-05-07T07:09:33;8.57;;;6.80;;
15833;SDS011;8017;50.812;4.934;2023-05-07T07:12:35;9.40;;;6.20;;
15833;SDS011;8017;50.812;4.934;2023-05-07T07:15:38;9.70;;;6.87;;
15833;SDS011;8017;50.812;4.934;2023-05-07T07:18:41;11.33;;;6.93;;
15833;SDS011;8017;50.812;4.934;2023-05-07T07:21:43;13.13;;;6.13;;
15833;SDS011;8017;50.812;4.934;2023-05-07T07:24:45;8.73;;;4.60;;
15833;SDS011;8017;50.812;4.934;2023-05-07T07:27:46;9.90;;;4.60;;
15833;SDS011;8017;50.812;4.934;2023-05-07T07:30:50;8.07;;;4.30;;
15833;SDS011;8017;50.812;4.934;2023-05-07T07:33:52;9.47;;;4.47;;
15833;SDS011;8017;50.812;4.934;2023-05-07T07:36:54;7.23;;;4.60;;
15833;SDS011;8017;50.812;4.934;2023-05-07T07:39:56;8.97;;;4.37;;
15833;SDS011;8017;50.812;4.934;2023-05-07T07:42:58;7.20;;;3.30;;
15833;SDS011;8017;50.812;4.934;2023-05-07T07:46:02;5.13;;;3.60;;
15833;SDS011;8017;50.812;4.934;2023-05-07T07:49:04;7.20;;;3.57;;
15833;SDS011;8017;50.812;4.934;2023-05-07T07:52:06;7.67;;;3.83;;
15833;SDS011;8017;50.812;4.934;2023-05-07T07:55:08;6.50;;;3.23;;
15833;SDS011;8017;50.812;4.934;2023-05-07T07:58:10;5.27;;;2.73;;
15833;SDS011;8017;50.812;4.934;2023-05-07T08:01:14;7.07;;;2.77;;
15833;SDS011;8017;50.812;4.934;2023-05-07T08:04:16;7.20;;;2.83;;
15833;SDS011;8017;50.812;4.934;2023-05-07T08:07:18;7.20;;;2.90;;
15833;SDS011;8017;50.812;4.934;2023-05-07T08:10:22;5.77;;;2.80;;
15833;SDS011;8017;50.812;4.934;2023-05-07T08:13:24;6.67;;;2.60;;
15833;SDS011;8017;50.812;4.934;2023-05-07T08:16:28;4.90;;;2.50;;
15833;SDS011;8017;50.812;4.934;2023-05-07T08:19:30;5.43;;;3.43;;
15833;SDS011;8017;50.812;4.934;2023-05-07T08:22:32;7.60;;;3.20;;
15833;SDS011;8017;50.812;4.934;2023-05-07T08:25:35;4.93;;;2.60;;
15833;SDS011;8017;50.812;4.934;2023-05-07T08:28:37;5.37;;;2.80;;
15833;SDS011;8017;50.812;4.934;2023-05-07T08:31:41;8.60;;;3.67;;
15833;SDS011;8017;50.812;4.934;2023-05-07T08:34:42;10.43;;;3.37;;
15833;SDS011;8017;50.812;4.934;2023-05-07T08:37:44;7.10;;;3.20;;
15833;SDS011;8017;50.812;4.934;2023-05-07T08:40:46;7.17;;;3.23;;
15833;SDS011;8017;50.812;4.934;2023-05-07T08:43:49;7.00;;;3.10;;
15833;SDS011;8017;50.812;4.934;2023-05-07T08:46:53;4.80;;;2.87;;
15833;SDS011;8017;50.812;4.934;2023-05-07T08:49:57;6.87;;;2.90;;
15833;SDS011;8017;50.812;4.934;2023-05-07T08:53:00;4.93;;;2.20;;
15833;SDS011;8017;50.812;4.934;2023-05-07T08:56:03;5.80;;;2.33;;
15833;SDS011;8017;50.812;4.934;2023-05-07T08:59:07;6.23;;;2.57;;
15833;SDS011;8017;50.812;4.934;2023-05-07T09:02:10;4.97;;;2.53;;
15833;SDS011;8017;50.812;4.934;2023-05-07T09:05:12;5.43;;;2.63;;
15833;SDS011;8017;50.812;4.934;2023-05-07T09:08:15;6.57;;;2.77;;
15833;SDS011;8017;50.812;4.934;2023-05-07T09:11:19;5.90;;;2.50;;
15833;SDS011;8017;50.812;4.934;2023-05-07T09:14:22;6.27;;;2.57;;
15833;SDS011;8017;50.812;4.934;2023-05-07T09:17:26;4.17;;;2.47;;
15833;SDS011;8017;50.812;4.934;2023-05-07T09:20:30;5.57;;;2.73;;
15833;SDS011;8017;50.812;4.934;2023-05-07T09:23:32;6.93;;;3.23;;
15833;SDS011;8017;50.812;4.934;2023-05-07T09:26:34;5.80;;;3.10;;
15833;SDS011;8017;50.812;4.934;2023-05-07T09:29:36;5.67;;;2.93;;
15833;SDS011;8017;50.812;4.934;2023-05-07T09:32:39;6.63;;;3.27;;
15833;SDS011;8017;50.812;4.934;2023-05-07T09:35:41;8.03;;;3.00;;
15833;SDS011;8017;50.812;4.934;2023-05-07T09:38:44;4.90;;;2.80;;
15833;SDS011;8017;50.812;4.934;2023-05-07T09:41:48;6.90;;;3.00;;
15833;SDS011;8017;50.812;4.934;2023-05-07T09:44:51;4.70;;;2.67;;
15833;SDS011;8017;50.812;4.934;2023-05-07T09:47:55;3.90;;;2.40;;
15833;SDS011;8017;50.812;4.934;2023-05-07T09:50:58;5.43;;;2.53;;
15833;SDS011;8017;50.812;4.934;2023-05-07T09:54:03;5.77;;;3.00;;
15833;SDS011;8017;50.812;4.934;2023-05-07T09:57:06;5.20;;;2.60;;
15833;SDS011;8017;50.812;4.934;2023-05-07T10:00:10;5.27;;;2.73;;
15833;SDS011;8017;50.812;4.934;2023-05-07T10:03:14;6.00;;;2.83;;
15833;SDS011;8017;50.812;4.934;2023-05-07T10:06:17;5.47;;;3.00;;
15833;SDS011;8017;50.812;4.934;2023-05-07T10:09:20;8.57;;;3.20;;
15833;SDS011;8017;50.812;4.934;2023-05-07T10:12:22;5.13;;;2.90;;
15833;SDS011;8017;50.812;4.934;2023-05-07T10:15:25;5.23;;;3.03;;
15833;SDS011;8017;50.812;4.934;2023-05-07T10:18:29;8.13;;;3.40;;
15833;SDS011;8017;50.812;4.934;2023-05-07T10:21:33;6.73;;;3.60;;
15833;SDS011;8017;50.812;4.934;2023-05-07T10:24:37;8.50;;;3.80;;
15833;SDS011;8017;50.812;4.934;2023-05-07T10:27:39;5.93;;;3.80;;
15833;SDS011;8017;50.812;4.934;2023-05-07T10:30:46;10.70;;;6.73;;
15833;SDS011;8017;50.812;4.934;2023-05-07T10:34:02;4.67;;;3.73;;
15833;SDS011;8017;50.812;4.934;2023-05-07T10:37:09;6.57;;;3.57;;
15833;SDS011;8017;50.812;4.934;2023-05-07T10:40:12;5.93;;;3.10;;
15833;SDS011;8017;50.812;4.934;2023-05-07T10:43:15;7.70;;;3.87;;
15833;SDS011;8017;50.812;4.934;2023-05-07T10:46:17;10.20;;;4.67;;
15833;SDS011;8017;50.812;4.934;2023-05-07T10:49:21;8.73;;;5.83;;
15833;SDS011;8017;50.812;4.934;2023-05-07T10:52:24;7.17;;;4.13;;
15833;SDS011;8017;50.812;4.934;2023-05-07T10:55:26;5.97;;;3.87;;
15833;SDS011;8017;50.812;4.934;2023-05-07T10:58:30;7.00;;;3.87;;
15833;SDS011;8017;50.812;4.934;2023-05-07T11:01:49;6.67;;;3.40;;
15833;SDS011;8017;50.812;4.934;2023-05-07T11:08:22;5.93;;;3.17;;
15833;SDS011;8017;50.812;4.934;2023-05-07T11:14:45;8.10;;;3.53;;
15833;SDS011;8017;50.812;4.934;2023-05-07T11:17:54;4.33;;;3.20;;
15833;SDS011;8017;50.812;4.934;2023-05-07T11:20:58;6.60;;;3.40;;
15833;SDS011;8017;50.812;4.934;2023-05-07T11:24:00;8.27;;;3.37;;
15833;SDS011;8017;50.812;4.934;2023-05-07T11:27:03;8.43;;;3.50;;
15833;SDS011;8017;50.812;4.934;2023-05-07T11:30:06;7.47;;;3.57;;
15833;SDS011;8017;50.812;4.934;2023-05-07T11:33:09;6.20;;;3.03;;
15833;SDS011;8017;50.812;4.934;2023-05-07T11:36:13;6.87;;;2.67;;
15833;SDS011;8017;50.812;4.934;2023-05-07T11:39:25;7.30;;;2.47;;
15833;SDS011;8017;50.812;4.934;2023-05-07T11:42:28;6.57;;;2.53;;
15833;SDS011;8017;50.812;4.934;2023-05-07T11:45:30;4.23;;;2.57;;
15833;SDS011;8017;50.812;4.934;2023-05-07T11:48:34;5.97;;;2.70;;
15833;SDS011;8017;50.812;4.934;2023-05-07T11:51:37;5.83;;;2.97;;
15833;SDS011;8017;50.812;4.934;2023-05-07T11:54:40;5.27;;;2.90;;
15833;SDS011;8017;50.812;4.934;2023-05-07T11:57:42;5.60;;;3.03;;
15833;SDS011;8017;50.812;4.934;2023-05-07T12:00:47;5.53;;;3.40;;
15833;SDS011;8017;50.812;4.934;2023-05-07T12:03:50;5.87;;;2.40;;
15833;SDS011;8017;50.812;4.934;2023-05-07T12:06:55;4.37;;;2.90;;
15833;SDS011;8017;50.812;4.934;2023-05-07T12:09:56;6.13;;;2.83;;
15833;SDS011;8017;50.812;4.934;2023-05-07T12:12:58;5.77;;;3.10;;
15833;SDS011;8017;50.812;4.934;2023-05-07T12:16:00;6.90;;;2.70;;
15833;SDS011;8017;50.812;4.934;2023-05-07T12:19:04;4.03;;;2.47;;
15833;SDS011;8017;50.812;4.934;2023-05-07T12:22:09;4.17;;;2.60;;
15833;SDS011;8017;50.812;4.934;2023-05-07T12:25:11;4.33;;;2.57;;
15833;SDS011;8017;50.812;4.934;2023-05-07T12:28:19;4.63;;;2.40;;
15833;SDS011;8017;50.812;4.934;2023-05-07T12:31:21;5.17;;;2.47;;
15833;SDS011;8017;50.812;4.934;2023-05-07T12:34:23;3.47;;;1.87;;
15833;SDS011;8017;50.812;4.934;2023-05-07T12:37:26;4.90;;;1.90;;
15833;SDS011;8017;50.812;4.934;2023-05-07T12:40:35;4.97;;;2.37;;
15833;SDS011;8017;50.812;4.934;2023-05-07T12:43:37;5.23;;;2.40;;
15833;SDS011;8017;50.812;4.934;2023-05-07T12:46:39;3.37;;;2.33;;
15833;SDS011;8017;50.812;4.934;2023-05-07T12:49:41;5.00;;;2.30;;
15833;SDS011;8017;50.812;4.934;2023-05-07T12:52:47;4.20;;;2.20;;
15833;SDS011;8017;50.812;4.934;2023-05-07T12:55:50;3.20;;;2.23;;
15833;SDS011;8017;50.812;4.934;2023-05-07T12:58:56;3.70;;;2.30;;
15833;SDS011;8017;50.812;4.934;2023-05-07T13:01:59;4.00;;;2.17;;
15833;SDS011;8017;50.812;4.934;2023-05-07T13:05:01;3.80;;;2.00;;
15833;SDS011;8017;50.812;4.934;2023-05-07T13:08:05;6.13;;;2.20;;
15833;SDS011;8017;50.812;4.934;2023-05-07T13:11:10;3.17;;;1.47;;
15833;SDS011;8017;50.812;4.934;2023-05-07T13:14:12;3.43;;;1.73;;
15833;SDS011;8017;50.812;4.934;2023-05-07T13:17:14;4.83;;;1.60;;
15833;SDS011;8017;50.812;4.934;2023-05-07T13:20:16;3.67;;;1.70;;
15833;SDS011;8017;50.812;4.934;2023-05-07T13:23:19;3.13;;;1.77;;
15833;SDS011;8017;50.812;4.934;2023-05-07T13:26:21;3.70;;;1.67;;
15833;SDS011;8017;50.812;4.934;2023-05-07T13:29:23;4.53;;;2.20;;
15833;SDS011;8017;50.812;4.934;2023-05-07T13:32:30;3.33;;;2.00;;
15833;SDS011;8017;50.812;4.934;2023-05-07T13:35:32;3.80;;;1.90;;
15833;SDS011;8017;50.812;4.934;2023-05-07T13:38:36;3.13;;;1.80;;
15833;SDS011;8017;50.812;4.934;2023-05-07T13:41:37;5.93;;;1.80;;
15833;SDS011;8017;50.812;4.934;2023-05-07T13:44:39;3.83;;;1.90;;
15833;SDS011;8017;50.812;4.934;2023-05-07T13:47:43;4.33;;;2.20;;
15833;SDS011;8017;50.812;4.934;2023-05-07T13:50:46;4.90;;;2.10;;
15833;SDS011;8017;50.812;4.934;2023-05-07T13:53:49;3.00;;;1.93;;
15833;SDS011;8017;50.812;4.934;2023-05-07T13:56:52;4.27;;;2.27;;
15833;SDS011;8017;50.812;4.934;2023-05-07T13:59:54;4.63;;;2.40;;
15833;SDS011;8017;50.812;4.934;2023-05-07T14:02:56;3.50;;;2.10;;
15833;SDS011;8017;50.812;4.934;2023-05-07T14:05:58;2.87;;;1.60;;
15833;SDS011;8017;50.812;4.934;2023-05-07T14:09:03;3.07;;;1.83;;
15833;SDS011;8017;50.812;4.934;2023-05-07T14:12:05;3.20;;;1.93;;
15833;SDS011;8017;50.812;4.934;2023-05-07T14:15:07;2.83;;;1.80;;
15833;SDS011;8017;50.812;4.934;2023-05-07T14:18:10;3.90;;;2.30;;
15833;SDS011;8017;50.812;4.934;2023-05-07T14:21:11;3.17;;;1.80;;
15833;SDS011;8017;50.812;4.934;2023-05-07T14:24:15;5.80;;;2.30;;
15833;SDS011;8017;50.812;4.934;2023-05-07T14:27:17;3.87;;;2.00;;
15833;SDS011;8017;50.812;4.934;2023-05-07T14:30:19;3.23;;;1.90;;
15833;SDS011;8017;50.812;4.934;2023-05-07T14:33:22;2.87;;;1.73;;
15833;SDS011;8017;50.812;4.934;2023-05-07T14:36:24;3.50;;;2.03;;
15833;SDS011;8017;50.812;4.934;2023-05-07T14:39:28;3.20;;;1.73;;
15833;SDS011;8017;50.812;4.934;2023-05-07T14:42:30;3.40;;;1.70;;
15833;SDS011;8017;50.812;4.934;2023-05-07T14:45:32;4.53;;;2.03;;
15833;SDS011;8017;50.812;4.934;2023-05-07T14:48:34;4.80;;;1.70;;
15833;SDS011;8017;50.812;4.934;2023-05-07T14:51:36;2.60;;;1.80;;
15833;SDS011;8017;50.812;4.934;2023-05-07T14:54:39;3.17;;;2.00;;
15833;SDS011;8017;50.812;4.934;2023-05-07T14:57:41;3.73;;;1.97;;
15833;SDS011;8017;50.812;4.934;2023-05-07T15:00:43;3.67;;;1.83;;
15833;SDS011;8017;50.812;4.934;2023-05-07T15:03:45;4.27;;;1.97;;
15833;SDS011;8017;50.812;4.934;2023-05-07T15:06:47;4.03;;;1.80;;
15833;SDS011;8017;50.812;4.934;2023-05-07T15:09:50;4.50;;;2.10;;
15833;SDS011;8017;50.812;4.934;2023-05-07T15:12:52;2.20;;;1.70;;
15833;SDS011;8017;50.812;4.934;2023-05-07T15:15:54;4.63;;;2.07;;
15833;SDS011;8017;50.812;4.934;2023-05-07T15:18:56;3.20;;;1.93;;
15833;SDS011;8017;50.812;4.934;2023-05-07T15:21:58;3.00;;;2.07;;
15833;SDS011;8017;50.812;4.934;2023-05-07T15:25:04;2.23;;;1.80;;
15833;SDS011;8017;50.812;4.934;2023-05-07T15:28:06;3.07;;;1.80;;
15833;SDS011;8017;50.812;4.934;2023-05-07T15:31:08;3.43;;;2.20;;
15833;SDS011;8017;50.812;4.934;2023-05-07T15:34:10;3.23;;;2.10;;
15833;SDS011;8017;50.812;4.934;2023-05-07T15:37:12;2.80;;;1.80;;
15833;SDS011;8017;50.812;4.934;2023-05-07T15:40:15;2.43;;;1.80;;
15833;SDS011;8017;50.812;4.934;2023-05-07T15:43:17;3.80;;;2.10;;
15833;SDS011;8017;50.812;4.934;2023-05-07T15:46:20;3.97;;;1.90;;
15833;SDS011;8017;50.812;4.934;2023-05-07T15:49:23;2.47;;;1.87;;
15833;SDS011;8017;50.812;4.934;2023-05-07T15:52:25;4.53;;;2.30;;
15833;SDS011;8017;50.812;4.934;2023-05-07T15:55:29;3.17;;;2.27;;
15833;SDS011;8017;50.812;4.934;2023-05-07T15:58:32;3.20;;;2.07;;
15833;SDS011;8017;50.812;4.934;2023-05-07T16:01:34;3.80;;;2.03;;
15833;SDS011;8017;50.812;4.934;2023-05-07T16:04:36;2.43;;;2.10;;
15833;SDS011;8017;50.812;4.934;2023-05-07T16:07:38;3.13;;;2.10;;
15833;SDS011;8017;50.812;4.934;2023-05-07T16:10:44;3.60;;;2.30;;
15833;SDS011;8017;50.812;4.934;2023-05-07T16:13:52;4.13;;;2.27;;
15833;SDS011;8017;50.812;4.934;2023-05-07T16:16:54;3.27;;;2.20;;
15833;SDS011;8017;50.812;4.934;2023-05-07T16:19:56;3.00;;;2.00;;
15833;SDS011;8017;50.812;4.934;2023-05-07T16:22:58;3.53;;;2.33;;
15833;SDS011;8017;50.812;4.934;2023-05-07T16:26:01;1.83;;;1.60;;
15833;SDS011;8017;50.812;4.934;2023-05-07T16:29:04;3.40;;;1.90;;
15833;SDS011;8017;50.812;4.934;2023-05-07T16:32:06;4.00;;;2.17;;
15833;SDS011;8017;50.812;4.934;2023-05-07T16:35:08;2.83;;;2.03;;
15833;SDS011;8017;50.812;4.934;2023-05-07T16:38:10;4.13;;;2.13;;
15833;SDS011;8017;50.812;4.934;2023-05-07T16:41:14;2.50;;;2.07;;
15833;SDS011;8017;50.812;4.934;2023-05-07T16:44:16;3.13;;;2.17;;
15833;SDS011;8017;50.812;4.934;2023-05-07T16:47:18;4.03;;;2.10;;
15833;SDS011;8017;50.812;4.934;2023-05-07T16:50:20;4.03;;;2.27;;
15833;SDS011;8017;50.812;4.934;2023-05-07T16:53:22;2.23;;;2.03;;
15833;SDS011;8017;50.812;4.934;2023-05-07T16:56:26;2.60;;;1.73;;
15833;SDS011;8017;50.812;4.934;2023-05-07T16:59:27;4.10;;;2.40;;
15833;SDS011;8017;50.812;4.934;2023-05-07T17:02:31;4.23;;;2.57;;
15833;SDS011;8017;50.812;4.934;2023-05-07T17:05:34;4.37;;;2.00;;
15833;SDS011;8017;50.812;4.934;2023-05-07T17:08:36;4.50;;;2.17;;
15833;SDS011;8017;50.812;4.934;2023-05-07T17:11:39;4.27;;;2.57;;
15833;SDS011;8017;50.812;4.934;2023-05-07T17:14:41;3.93;;;2.60;;
15833;SDS011;8017;50.812;4.934;2023-05-07T17:17:43;4.50;;;2.60;;
15833;SDS011;8017;50.812;4.934;2023-05-07T17:20:45;3.97;;;2.27;;
15833;SDS011;8017;50.812;4.934;2023-05-07T17:23:47;4.50;;;2.13;;
15833;SDS011;8017;50.812;4.934;2023-05-07T17:26:50;3.43;;;2.23;;
15833;SDS011;8017;50.812;4.934;2023-05-07T17:29:52;3.43;;;2.60;;
15833;SDS011;8017;50.812;4.934;2023-05-07T17:32:54;5.40;;;2.50;;
15833;SDS011;8017;50.812;4.934;2023-05-07T17:35:56;3.50;;;2.80;;
15833;SDS011;8017;50.812;4.934;2023-05-07T17:38:58;3.00;;;2.30;;
15833;SDS011;8017;50.812;4.934;2023-05-07T17:42:01;3.67;;;2.40;;
15833;SDS011;8017;50.812;4.934;2023-05-07T17:45:04;4.20;;;2.57;;
15833;SDS011;8017;50.812;4.934;2023-05-07T17:48:06;3.27;;;2.37;;
15833;SDS011;8017;50.812;4.934;2023-05-07T17:51:08;2.77;;;2.37;;
15833;SDS011;8017;50.812;4.934;2023-05-07T17:54:10;3.43;;;2.23;;
15833;SDS011;8017;50.812;4.934;2023-05-07T17:57:14;2.70;;;2.47;;
15833;SDS011;8017;50.812;4.934;2023-05-07T18:00:16;5.13;;;3.07;;
15833;SDS011;8017;50.812;4.934;2023-05-07T18:03:18;4.50;;;3.30;;
15833;SDS011;8017;50.812;4.934;2023-05-07T18:06:19;5.00;;;3.30;;
15833;SDS011;8017;50.812;4.934;2023-05-07T18:09:22;5.77;;;3.03;;
15833;SDS011;8017;50.812;4.934;2023-05-07T18:12:25;4.83;;;2.83;;
15833;SDS011;8017;50.812;4.934;2023-05-07T18:15:27;4.20;;;2.73;;
15833;SDS011;8017;50.812;4.934;2023-05-07T18:18:29;5.83;;;3.10;;
15833;SDS011;8017;50.812;4.934;2023-05-07T18:21:34;5.77;;;2.70;;
15833;SDS011;8017;50.812;4.934;2023-05-07T18:24:45;3.87;;;2.57;;
15833;SDS011;8017;50.812;4.934;2023-05-07T18:27:55;4.93;;;2.50;;
15833;SDS011;8017;50.812;4.934;2023-05-07T18:30:59;4.70;;;2.50;;
15833;SDS011;8017;50.812;4.934;2023-05-07T18:34:04;4.17;;;2.80;;
15833;SDS011;8017;50.812;4.934;2023-05-07T18:37:06;3.77;;;2.53;;